createdAt,value
2017-09-21T00:01:37.642Z,58.80
2017-09-21T00:04:05.729Z,58.70
2017-09-21T00:06:33.802Z,59.20
2017-09-21T00:09:01.891Z,58.40
2017-09-21T00:11:29.977Z,58.40
2017-09-21T00:13:58.067Z,57.70
2017-09-21T00:16:26.917Z,57.80
2017-09-21T00:18:55.005Z,57.70
2017-09-21T00:21:23.089Z,57.30
2017-09-21T00:23:51.184Z,58.40
2017-09-21T00:26:20.035Z,57.50
2017-09-21T00:28:48.119Z,57.40
2017-09-21T00:31:16.197Z,57.30
2017-09-21T00:33:44.282Z,57.40
2017-09-21T00:36:12.369Z,57.00
2017-09-21T00:38:41.220Z,58.10
2017-09-21T00:41:09.308Z,58.10
2017-09-21T00:43:37.401Z,58.00
2017-09-21T00:46:06.247Z,58.70
2017-09-21T00:48:34.337Z,59.60
2017-09-21T00:51:02.423Z,60.50
2017-09-21T00:53:30.509Z,60.30
2017-09-21T00:55:59.363Z,60.60
2017-09-21T00:58:27.456Z,60.40
2017-09-21T01:00:55.549Z,59.90
2017-09-21T01:03:24.399Z,59.60
2017-09-21T01:05:52.468Z,59.60
2017-09-21T01:08:20.555Z,59.90
2017-09-21T01:10:48.628Z,60.20
2017-09-21T01:13:16.716Z,60.80
2017-09-21T01:15:45.800Z,61.60
2017-09-21T01:18:13.883Z,61.80
2017-09-21T01:20:41.955Z,61.80
2017-09-21T01:23:10.039Z,61.40
2017-09-21T01:25:38.880Z,63.70
2017-09-21T01:28:07.718Z,64.30
2017-09-21T01:30:36.560Z,63.70
2017-09-21T01:33:04.640Z,63.60
2017-09-21T01:35:32.723Z,63.30
2017-09-21T01:38:00.805Z,64.00
2017-09-21T01:40:28.888Z,65.10
2017-09-21T01:42:56.970Z,64.30
2017-09-21T01:45:25.491Z,65.70
2017-09-21T01:47:53.571Z,67.00
2017-09-21T01:50:22.403Z,66.90
2017-09-21T01:52:50.491Z,66.80
2017-09-21T01:55:19.322Z,64.00
2017-09-21T01:57:47.403Z,63.90
2017-09-21T02:00:15.480Z,63.30
2017-09-21T02:02:43.556Z,63.40
2017-09-21T02:05:11.635Z,63.00
2017-09-21T02:07:39.709Z,62.50
2017-09-21T02:10:07.795Z,62.60
2017-09-21T02:12:35.871Z,62.10
2017-09-21T02:15:03.956Z,61.70
2017-09-21T02:17:32.037Z,62.70
2017-09-21T02:20:00.883Z,63.20
2017-09-21T02:22:28.960Z,63.10
2017-09-21T02:24:57.051Z,64.80
2017-09-21T02:27:25.134Z,65.30
2017-09-21T02:29:53.208Z,66.40
2017-09-21T02:32:21.276Z,66.10
2017-09-21T02:34:49.358Z,66.60
2017-09-21T02:37:17.440Z,65.70
2017-09-21T02:39:46.284Z,64.20
2017-09-21T02:42:14.355Z,64.20
2017-09-21T02:44:42.430Z,64.70
2017-09-21T02:47:10.504Z,65.00
2017-09-21T02:49:38.591Z,64.60
2017-09-21T02:52:06.664Z,66.50
2017-09-21T02:54:34.747Z,65.20
2017-09-21T02:57:02.820Z,64.40
2017-09-21T02:59:30.903Z,64.50
2017-09-21T03:01:59.735Z,63.10
2017-09-21T03:04:27.819Z,63.00
2017-09-21T03:06:55.899Z,63.20
2017-09-21T03:09:23.988Z,61.40
2017-09-21T03:11:52.060Z,62.50
2017-09-21T03:14:20.143Z,61.90
2017-09-21T03:16:48.208Z,62.00
2017-09-21T03:19:16.295Z,61.50
2017-09-21T03:21:44.364Z,62.50
2017-09-21T03:24:12.438Z,62.30
2017-09-21T03:26:41.292Z,64.50
2017-09-21T03:29:09.377Z,64.40
2017-09-21T03:31:37.447Z,63.90
2017-09-21T03:34:05.543Z,63.60
2017-09-21T03:36:33.620Z,64.00
2017-09-21T03:39:01.691Z,64.30
2017-09-21T03:41:29.764Z,64.70
2017-09-21T03:43:58.628Z,65.30
2017-09-21T03:46:26.698Z,65.20
2017-09-21T03:48:54.775Z,64.80
2017-09-21T03:51:22.843Z,64.80
2017-09-21T03:53:50.941Z,64.10
2017-09-21T03:56:19.010Z,63.80
2017-09-21T03:58:47.095Z,63.60
2017-09-21T04:01:15.933Z,63.40
2017-09-21T04:03:44.023Z,63.30
2017-09-21T04:06:12.094Z,62.20
2017-09-21T04:08:40.189Z,61.80
2017-09-21T04:11:08.257Z,62.60
2017-09-21T04:13:36.352Z,62.30
2017-09-21T04:16:05.190Z,64.80
2017-09-21T04:18:33.276Z,64.80
2017-09-21T04:21:01.361Z,62.60
2017-09-21T04:23:29.455Z,62.90
2017-09-21T04:25:57.519Z,63.90
2017-09-21T04:28:25.599Z,63.50
2017-09-21T04:30:53.673Z,62.80
2017-09-21T04:33:21.756Z,63.80
2017-09-21T04:35:50.613Z,62.90
2017-09-21T04:38:18.684Z,62.90
2017-09-21T04:40:46.767Z,60.90
2017-09-21T04:43:14.842Z,60.90
2017-09-21T04:45:42.922Z,59.70
2017-09-21T04:48:11.000Z,59.70
2017-09-21T04:50:39.857Z,58.20
2017-09-21T04:53:07.929Z,58.20
2017-09-21T04:55:36.009Z,58.80
2017-09-21T04:58:04.072Z,59.00
2017-09-21T05:00:32.167Z,59.00
2017-09-21T05:03:00.235Z,59.50
2017-09-21T05:05:28.308Z,58.70
2017-09-21T05:07:56.375Z,59.30
2017-09-21T05:10:24.463Z,59.00
2017-09-21T05:12:52.527Z,58.20
2017-09-21T05:15:20.616Z,60.00
2017-09-21T05:17:48.730Z,58.60
2017-09-21T05:20:17.570Z,57.90
2017-09-21T05:22:45.645Z,57.90
2017-09-21T05:25:13.725Z,58.80
2017-09-21T05:27:41.792Z,58.50
2017-09-21T05:30:09.905Z,59.20
2017-09-21T05:32:38.000Z,59.60
2017-09-21T05:35:06.102Z,57.90
2017-09-21T05:37:34.180Z,58.00
2017-09-21T05:40:02.287Z,58.00
2017-09-21T05:42:30.359Z,58.10
2017-09-21T05:44:58.468Z,57.30
2017-09-21T05:47:26.537Z,57.90
2017-09-21T05:49:54.623Z,58.00
2017-09-21T05:52:22.751Z,58.00
2017-09-21T05:54:50.856Z,58.10
2017-09-21T05:57:18.955Z,57.70
2017-09-21T05:59:47.039Z,57.20
2017-09-21T06:02:15.892Z,56.70
2017-09-21T06:04:43.987Z,56.70
2017-09-21T06:07:12.076Z,56.90
2017-09-21T06:09:40.165Z,56.80
2017-09-21T06:12:09.028Z,57.60
2017-09-21T06:14:37.451Z,57.60
2017-09-21T06:17:05.524Z,58.10
2017-09-21T06:19:33.615Z,58.20
2017-09-21T06:22:02.454Z,57.20
2017-09-21T06:24:30.528Z,57.10
2017-09-21T06:26:58.600Z,57.80
2017-09-21T06:29:26.684Z,57.50
2017-09-21T06:31:56.703Z,57.30
2017-09-21T06:34:25.552Z,57.50
2017-09-21T06:36:53.622Z,57.50
2017-09-21T06:39:21.711Z,56.50
2017-09-21T06:41:49.787Z,55.90
2017-09-21T06:44:17.875Z,56.30
2017-09-21T06:46:45.959Z,55.40
2017-09-21T06:49:14.816Z,53.10
2017-09-21T06:51:42.888Z,53.10
2017-09-21T06:54:10.971Z,53.00
2017-09-21T06:56:39.064Z,53.40
2017-09-21T06:59:07.924Z,52.80
2017-09-21T07:01:36.001Z,53.70
2017-09-21T07:04:04.091Z,53.40
2017-09-21T07:06:32.164Z,52.80
2017-09-21T07:09:00.239Z,52.90
2017-09-21T07:11:28.323Z,53.10
2017-09-21T07:13:57.167Z,53.30
2017-09-21T07:16:25.254Z,54.20
2017-09-21T07:18:53.316Z,54.70
2017-09-21T07:21:21.400Z,55.70
2017-09-21T07:23:49.475Z,56.00
2017-09-21T07:26:17.560Z,56.60
2017-09-21T07:28:45.666Z,55.60
2017-09-21T07:31:13.751Z,56.20
2017-09-21T07:33:42.601Z,54.40
2017-09-21T07:36:10.679Z,54.30
2017-09-21T07:38:39.524Z,55.00
2017-09-21T07:41:07.607Z,54.90
2017-09-21T07:43:35.686Z,54.90
2017-09-21T07:46:03.775Z,54.60
2017-09-21T07:48:31.852Z,54.30
2017-09-21T07:50:59.948Z,53.70
2017-09-21T07:53:28.783Z,54.00
2017-09-21T07:55:56.883Z,53.90
2017-09-21T07:58:24.954Z,54.00
2017-09-21T08:00:53.048Z,54.10
2017-09-21T08:03:21.897Z,53.30
2017-09-21T08:05:49.983Z,53.20
2017-09-21T08:08:18.056Z,52.50
2017-09-21T08:10:46.139Z,52.40
2017-09-21T08:13:14.225Z,52.70
2017-09-21T08:15:43.080Z,53.10
2017-09-21T08:18:11.150Z,53.10
2017-09-21T08:20:39.256Z,52.70
2017-09-21T08:23:07.329Z,53.00
2017-09-21T08:25:36.195Z,53.10
2017-09-21T08:28:04.287Z,53.00
2017-09-21T08:30:32.363Z,52.90
2017-09-21T08:33:01.211Z,54.00
2017-09-21T08:35:29.290Z,54.00
2017-09-21T08:37:57.381Z,54.00
2017-09-21T08:40:25.466Z,54.80
2017-09-21T08:42:53.539Z,54.30
2017-09-21T08:45:21.619Z,55.00
2017-09-21T08:47:50.455Z,53.40
2017-09-21T08:50:19.312Z,52.70
2017-09-21T08:52:48.375Z,54.00
2017-09-21T08:55:17.480Z,53.30
2017-09-21T08:57:45.564Z,53.10
2017-09-21T09:00:14.423Z,52.10
2017-09-21T09:02:42.507Z,52.10
2017-09-21T09:05:10.582Z,51.80
2017-09-21T09:07:38.662Z,50.70
2017-09-21T09:10:06.752Z,50.90
2017-09-21T09:12:35.604Z,48.80
2017-09-21T09:15:03.692Z,48.60
2017-09-21T09:17:31.772Z,50.40
2017-09-21T09:19:59.852Z,48.90
2017-09-21T09:22:27.937Z,49.20
2017-09-21T09:24:56.790Z,47.90
2017-09-21T09:27:24.875Z,47.70
2017-09-21T09:29:52.952Z,47.70
2017-09-21T09:32:21.035Z,47.60
2017-09-21T09:34:49.883Z,47.20
2017-09-21T09:37:17.967Z,47.10
2017-09-21T09:39:46.051Z,47.30
2017-09-21T09:42:14.140Z,47.00
2017-09-21T09:44:42.707Z,48.10
2017-09-21T09:47:10.797Z,49.10
2017-09-21T09:49:38.872Z,49.30
2017-09-21T09:52:07.746Z,48.60
2017-09-21T09:54:35.818Z,48.60
2017-09-21T09:57:03.898Z,47.60
2017-09-21T09:59:31.976Z,47.30
2017-09-21T10:02:00.841Z,47.30
2017-09-21T10:04:28.918Z,47.30
2017-09-21T10:06:57.008Z,47.00
2017-09-21T10:09:25.087Z,47.50
2017-09-21T10:11:53.183Z,47.20
2017-09-21T10:14:21.273Z,46.50
2017-09-21T10:16:49.377Z,46.20
2017-09-21T10:19:17.455Z,45.80
2017-09-21T10:21:45.548Z,45.90
2017-09-21T10:24:13.642Z,46.50
2017-09-21T10:26:42.503Z,46.40
2017-09-21T10:29:10.590Z,46.30
2017-09-21T10:31:39.448Z,45.60
2017-09-21T10:34:07.540Z,44.90
2017-09-21T10:36:35.627Z,44.60
2017-09-21T10:39:04.475Z,43.40
2017-09-21T10:41:32.561Z,43.40
2017-09-21T10:44:00.644Z,43.40
2017-09-21T10:46:28.740Z,43.50
2017-09-21T10:48:57.596Z,42.70
2017-09-21T10:51:25.685Z,42.60
2017-09-21T10:53:53.763Z,42.60
2017-09-21T10:56:21.856Z,43.30
2017-09-21T10:58:50.704Z,42.30
2017-09-21T11:01:18.786Z,42.30
2017-09-21T11:03:46.875Z,40.70
2017-09-21T11:06:14.960Z,40.20
2017-09-21T11:08:43.806Z,40.20
2017-09-21T11:11:12.655Z,40.20
2017-09-21T11:13:41.501Z,40.10
2017-09-21T11:16:09.583Z,39.30
2017-09-21T11:18:37.660Z,39.30
2017-09-21T11:21:05.784Z,38.90
2017-09-21T11:23:33.860Z,39.20
2017-09-21T11:26:01.947Z,37.80
2017-09-21T11:28:30.028Z,38.10
2017-09-21T11:30:58.116Z,37.50
2017-09-21T11:33:26.207Z,36.50
2017-09-21T11:35:54.296Z,35.50
2017-09-21T11:38:23.144Z,34.30
2017-09-21T11:40:51.223Z,34.30
2017-09-21T11:43:19.324Z,33.90
2017-09-21T11:45:48.180Z,31.90
2017-09-21T11:48:16.267Z,31.80
2017-09-21T11:50:44.356Z,30.80
2017-09-21T11:53:13.216Z,29.00
2017-09-21T11:55:41.293Z,29.00
2017-09-21T11:58:09.390Z,29.00
2017-09-21T12:00:37.463Z,28.20
2017-09-21T12:03:06.316Z,27.70
2017-09-21T12:05:34.401Z,27.70
2017-09-21T12:08:02.479Z,27.70
2017-09-21T12:10:30.550Z,27.50
2017-09-21T12:12:58.684Z,27.30
2017-09-21T12:15:26.763Z,25.90
2017-09-21T12:17:54.845Z,25.70
2017-09-21T12:20:23.692Z,27.20
2017-09-21T12:22:52.560Z,26.80
2017-09-21T12:25:20.637Z,26.70
2017-09-21T12:27:48.724Z,26.90
2017-09-21T12:30:17.573Z,26.60
2017-09-21T12:32:45.677Z,26.50
2017-09-21T12:35:13.780Z,25.90
2017-09-21T12:37:41.831Z,25.60
2017-09-21T12:40:10.684Z,24.90
2017-09-21T12:42:38.780Z,24.90
2017-09-21T12:45:06.852Z,23.40
2017-09-21T12:47:34.944Z,23.50
2017-09-21T12:50:03.791Z,23.60
2017-09-21T12:52:31.881Z,23.60
2017-09-21T12:55:00.977Z,23.90
2017-09-21T12:57:29.058Z,24.10
2017-09-21T12:59:57.145Z,24.50
2017-09-21T13:02:25.995Z,24.60
2017-09-21T13:04:54.068Z,24.50
2017-09-21T13:07:22.146Z,24.70
2017-09-21T13:09:50.220Z,24.00
2017-09-21T13:12:18.312Z,23.90
2017-09-21T13:14:46.384Z,23.80
2017-09-21T13:17:14.460Z,23.10
2017-09-21T13:19:42.542Z,23.10
2017-09-21T13:22:11.391Z,23.40
2017-09-21T13:24:39.464Z,22.80
2017-09-21T13:27:07.545Z,22.90
2017-09-21T13:29:35.619Z,21.30
2017-09-21T13:32:03.695Z,21.70
2017-09-21T13:34:31.772Z,21.50
2017-09-21T13:36:59.857Z,21.30
2017-09-21T13:39:27.929Z,21.40
2017-09-21T13:41:56.008Z,21.60
2017-09-21T13:44:24.077Z,21.40
2017-09-21T13:46:52.195Z,21.80
2017-09-21T13:49:20.277Z,22.20
2017-09-21T13:51:48.357Z,22.20
2017-09-21T13:54:16.439Z,22.40
2017-09-21T13:56:44.523Z,21.30
2017-09-21T13:59:12.599Z,21.40
2017-09-21T14:01:40.675Z,21.40
2017-09-21T14:04:08.757Z,20.90
2017-09-21T14:06:36.824Z,20.80
2017-09-21T14:09:04.896Z,21.10
2017-09-21T14:11:32.958Z,21.00
2017-09-21T14:14:01.058Z,20.00
2017-09-21T14:16:29.895Z,20.90
2017-09-21T14:18:58.727Z,20.20
2017-09-21T14:21:26.803Z,20.20
2017-09-21T14:23:54.881Z,20.50
2017-09-21T14:26:23.738Z,19.50
2017-09-21T14:28:51.824Z,19.50
2017-09-21T14:31:19.892Z,19.50
2017-09-21T14:33:47.964Z,19.20
2017-09-21T14:36:16.037Z,19.10
2017-09-21T14:38:44.123Z,18.70
2017-09-21T14:41:12.188Z,18.90
2017-09-21T14:43:40.276Z,19.10
2017-09-21T14:46:08.344Z,18.50
2017-09-21T14:48:36.416Z,18.80
2017-09-21T14:51:04.486Z,19.70
2017-09-21T14:53:32.564Z,18.80
2017-09-21T14:56:00.628Z,19.10
2017-09-21T14:58:28.703Z,19.50
2017-09-21T15:00:56.778Z,20.50
2017-09-21T15:03:24.844Z,20.40
2017-09-21T15:05:52.907Z,21.60
2017-09-21T15:08:20.989Z,20.00
2017-09-21T15:10:49.047Z,20.80
2017-09-21T15:13:17.143Z,20.60
2017-09-21T15:15:45.212Z,20.30
2017-09-21T15:18:13.319Z,20.30
2017-09-21T15:20:41.406Z,20.60
2017-09-21T15:23:09.493Z,21.00
2017-09-21T15:25:37.567Z,21.40
2017-09-21T15:28:05.645Z,20.70
2017-09-21T15:30:33.865Z,21.50
2017-09-21T15:33:02.013Z,21.50
2017-09-21T15:35:30.108Z,21.50
2017-09-21T15:37:59.035Z,21.50
2017-09-21T15:40:27.128Z,21.40
2017-09-21T15:42:55.234Z,21.50
2017-09-21T15:45:23.316Z,21.40
2017-09-21T15:47:52.172Z,22.30
2017-09-21T15:50:20.267Z,22.20
2017-09-21T15:52:48.355Z,22.30
2017-09-21T15:55:17.242Z,22.10
2017-09-21T15:57:46.195Z,22.10
2017-09-21T16:00:14.295Z,21.90
2017-09-21T16:02:42.372Z,22.20
2017-09-21T16:05:10.464Z,22.30
2017-09-21T16:07:39.337Z,22.70
2017-09-21T16:10:07.439Z,22.70
2017-09-21T16:12:36.293Z,22.70
2017-09-21T16:15:04.376Z,23.20
2017-09-21T16:17:32.598Z,22.70
2017-09-21T16:20:01.471Z,23.10
2017-09-21T16:22:29.567Z,23.10
2017-09-21T16:24:57.652Z,23.10
2017-09-21T16:27:25.747Z,23.20
2017-09-21T16:29:53.851Z,23.60
2017-09-21T16:32:22.714Z,24.40
2017-09-21T16:34:50.798Z,24.40
2017-09-21T16:37:18.896Z,24.20
2017-09-21T16:39:47.752Z,24.30
2017-09-21T16:42:15.846Z,24.10
2017-09-21T16:44:44.686Z,24.60
2017-09-21T16:47:12.762Z,24.50
2017-09-21T16:49:40.842Z,24.50
2017-09-21T16:52:08.933Z,25.10
2017-09-21T16:54:37.019Z,24.70
2017-09-21T16:57:05.103Z,24.90
2017-09-21T16:59:33.972Z,26.00
2017-09-21T17:02:02.047Z,25.50
2017-09-21T17:04:30.212Z,25.80
2017-09-21T17:06:58.300Z,25.90
2017-09-21T17:09:26.379Z,26.10
2017-09-21T17:11:55.245Z,27.00
2017-09-21T17:14:23.332Z,27.00
2017-09-21T17:16:51.416Z,27.30
2017-09-21T17:19:20.266Z,28.50
2017-09-21T17:21:49.117Z,28.00
2017-09-21T17:24:17.188Z,27.90
2017-09-21T17:26:46.115Z,29.40
2017-09-21T17:29:14.195Z,29.40
2017-09-21T17:31:42.273Z,30.00
2017-09-21T17:34:10.359Z,31.90
2017-09-21T17:36:38.427Z,30.40
2017-09-21T17:39:06.515Z,31.30
2017-09-21T17:41:34.587Z,32.20
2017-09-21T17:44:02.664Z,32.40
2017-09-21T17:46:31.515Z,34.60
2017-09-21T17:48:59.600Z,34.30
2017-09-21T17:51:27.680Z,33.90
2017-09-21T17:53:55.767Z,34.50
2017-09-21T17:56:23.844Z,34.80
2017-09-21T17:58:51.923Z,34.80
2017-09-21T18:01:20.772Z,36.20
2017-09-21T18:03:48.847Z,36.20
2017-09-21T18:06:16.925Z,36.10
2017-09-21T18:08:45.012Z,36.00
2017-09-21T18:11:13.091Z,36.30
2017-09-21T18:13:41.170Z,37.20
2017-09-21T18:16:09.242Z,37.10
2017-09-21T18:18:37.323Z,38.00
2017-09-21T18:21:06.164Z,39.10
2017-09-21T18:23:34.250Z,39.10
2017-09-21T18:26:02.349Z,39.70
2017-09-21T18:28:30.448Z,40.00
2017-09-21T18:30:59.292Z,40.20
2017-09-21T18:33:27.367Z,40.20
2017-09-21T18:35:55.476Z,40.60
2017-09-21T18:38:24.324Z,40.80
2017-09-21T18:40:52.431Z,40.70
2017-09-21T18:43:21.277Z,40.90
2017-09-21T18:45:49.361Z,40.80
2017-09-21T18:48:17.443Z,41.20
2017-09-21T18:50:45.540Z,41.20
2017-09-21T18:53:14.383Z,41.10
2017-09-21T18:55:42.481Z,41.00
2017-09-21T18:58:10.567Z,41.40
2017-09-21T19:00:38.646Z,41.40
2017-09-21T19:03:07.503Z,40.90
2017-09-21T19:05:35.604Z,40.90
2017-09-21T19:08:03.689Z,41.30
2017-09-21T19:10:32.523Z,41.50
2017-09-21T19:13:00.612Z,41.50
2017-09-21T19:15:28.692Z,41.00
2017-09-21T19:17:56.785Z,41.60
2017-09-21T19:20:24.861Z,41.60
2017-09-21T19:22:53.715Z,42.00
2017-09-21T19:25:21.806Z,42.00
2017-09-21T19:27:49.892Z,42.80
2017-09-21T19:30:18.052Z,42.80
2017-09-21T19:32:46.141Z,43.30
2017-09-21T19:35:14.223Z,43.60
2017-09-21T19:37:43.129Z,44.20
2017-09-21T19:40:11.970Z,43.70
2017-09-21T19:42:40.127Z,43.70
2017-09-21T19:45:08.221Z,43.40
2017-09-21T19:47:36.368Z,43.40
2017-09-21T19:50:05.261Z,43.40
2017-09-21T19:52:34.177Z,43.40
2017-09-21T19:55:02.268Z,43.40
2017-09-21T19:57:30.362Z,43.40
2017-09-21T19:59:59.208Z,43.40
2017-09-21T20:02:27.351Z,43.40
2017-09-21T20:04:55.429Z,43.40
2017-09-21T20:07:23.515Z,43.20
2017-09-21T20:09:52.369Z,43.20
2017-09-21T20:12:20.443Z,43.20
2017-09-21T20:14:48.764Z,43.50
2017-09-21T20:17:16.841Z,44.20
2017-09-21T20:19:45.002Z,44.70
2017-09-21T20:22:13.087Z,45.10
2017-09-21T20:24:41.181Z,45.10
2017-09-21T20:27:09.306Z,45.40
2017-09-21T20:29:37.392Z,44.90
2017-09-21T20:32:05.471Z,44.70
2017-09-21T20:34:33.561Z,44.50
2017-09-21T20:37:01.641Z,44.20
2017-09-21T20:39:29.729Z,44.20
2017-09-21T20:41:57.812Z,44.10
2017-09-21T20:44:26.679Z,44.40
2017-09-21T20:46:54.767Z,44.40
2017-09-21T20:49:23.629Z,44.50
2017-09-21T20:51:51.711Z,44.40
2017-09-21T20:54:19.799Z,44.30
2017-09-21T20:56:47.871Z,44.40
2017-09-21T20:59:15.951Z,44.70
2017-09-21T21:01:44.803Z,45.20
2017-09-21T21:04:12.897Z,45.10
2017-09-21T21:06:40.975Z,44.40
2017-09-21T21:09:09.069Z,44.80
2017-09-21T21:11:37.912Z,44.80
2017-09-21T21:14:06.008Z,44.80
2017-09-21T21:16:34.084Z,44.80
2017-09-21T21:19:02.175Z,45.00
2017-09-21T21:21:31.025Z,45.60
2017-09-21T21:23:59.124Z,45.50
2017-09-21T21:26:27.200Z,45.40
2017-09-21T21:28:56.061Z,46.30
2017-09-21T21:31:24.148Z,45.60
2017-09-21T21:33:52.239Z,45.30
2017-09-21T21:36:21.100Z,44.90
2017-09-21T21:38:49.188Z,44.90
2017-09-21T21:41:17.260Z,45.00
2017-09-21T21:43:45.351Z,44.90
2017-09-21T21:46:14.203Z,45.40
2017-09-21T21:48:42.296Z,45.30
2017-09-21T21:51:10.368Z,45.30
2017-09-21T21:53:39.319Z,45.10
2017-09-21T21:56:07.404Z,44.50
2017-09-21T21:58:36.256Z,44.60
2017-09-21T22:01:05.211Z,44.80
2017-09-21T22:03:33.319Z,44.80
2017-09-21T22:06:02.164Z,45.10
2017-09-21T22:08:30.255Z,45.10
2017-09-21T22:10:58.326Z,45.20
2017-09-21T22:13:26.407Z,45.00
2017-09-21T22:15:54.488Z,45.30
2017-09-21T22:18:23.349Z,45.70
2017-09-21T22:20:51.429Z,45.70
2017-09-21T22:23:19.523Z,46.50
2017-09-21T22:25:47.595Z,47.00
2017-09-21T22:28:16.451Z,47.10
2017-09-21T22:30:44.528Z,47.00
2017-09-21T22:33:12.612Z,48.20
2017-09-21T22:35:40.683Z,49.80
2017-09-21T22:38:08.770Z,50.40
2017-09-21T22:40:36.839Z,50.00
2017-09-21T22:43:04.924Z,49.70
2017-09-21T22:45:33.769Z,49.70
2017-09-21T22:48:01.872Z,49.70
2017-09-21T22:50:29.949Z,49.80
2017-09-21T22:52:58.044Z,49.20
2017-09-21T22:55:26.892Z,48.70
2017-09-21T22:57:54.960Z,48.60
2017-09-21T23:00:23.047Z,47.80
2017-09-21T23:02:51.131Z,48.70
2017-09-21T23:05:20.248Z,48.40
2017-09-21T23:07:49.092Z,47.70
2017-09-21T23:10:17.169Z,47.70
2017-09-21T23:12:45.243Z,48.10
2017-09-21T23:15:13.327Z,48.70
2017-09-21T23:17:41.407Z,47.70
2017-09-21T23:20:09.491Z,47.60
2017-09-21T23:22:38.336Z,48.50
2017-09-21T23:25:06.419Z,48.40
2017-09-21T23:27:34.501Z,48.20
2017-09-21T23:30:02.590Z,49.50
2017-09-21T23:32:30.668Z,49.40
2017-09-21T23:34:58.742Z,49.40
2017-09-21T23:37:27.599Z,48.70
2017-09-21T23:39:55.687Z,48.60
2017-09-21T23:42:24.559Z,49.10
2017-09-21T23:44:52.643Z,49.10
2017-09-21T23:47:20.722Z,49.30
2017-09-21T23:49:48.807Z,49.30
2017-09-21T23:52:16.911Z,50.60
2017-09-21T23:54:44.997Z,51.60
2017-09-21T23:57:13.318Z,51.10
2017-09-21T23:59:41.489Z,51.40
